Time;durP1;ratioP1;P1;durP2;ratioP2;P2;SDS_P1;SDS_P2;PMS_P1;PMS_P2;Temp;Humidity;BMP_temperature;BMP_pressure;BME280_temperature;BME280_humidity;BME280_pressure;Samples;Min_cycle;Max_cycle;Signal;HPM_P1;HPM_P2
2021/12/24 00:00:45;;;;;;;12.68;5.80;;;;;;;-5.03;92.15;98403.25;5056199;28;20060;-76
2021/12/24 00:03:11;;;;;;;13.73;6.97;;;;;;;-5.04;92.09;98411.50;5074556;28;20063;-75
2021/12/24 00:05:37;;;;;;;13.10;6.25;;;;;;;-5.03;91.86;98394.41;5076917;28;20036;-76
2021/12/24 00:08:03;;;;;;;12.07;5.88;;;;;;;-5.05;91.99;98401.84;5062271;28;20067;-76
2021/12/24 00:10:31;;;;;;;14.40;5.88;;;;;;;-5.06;92.10;98389.53;5056167;28;20076;-76
2021/12/24 00:13:02;;;;;;;13.32;6.20;;;;;;;-5.09;92.87;98390.81;5070344;28;20102;-76
2021/12/24 00:18:53;;;;;;;13.15;7.05;;;;;;;-5.11;92.65;98371.53;5067414;28;20091;-75
2021/12/24 00:37:05;;;;;;;11.23;6.13;;;;;;;-5.21;92.38;98361.44;5072556;28;20068;-76
2021/12/24 00:39:32;;;;;;;15.60;6.93;;;;;;;-5.21;92.69;98355.25;5084789;28;20458;-76
2021/12/24 00:41:57;;;;;;;13.05;6.25;;;;;;;-5.21;92.55;98365.94;5064033;28;20165;-76
2021/12/24 00:44:23;;;;;;;13.88;6.57;;;;;;;-5.23;93.20;98355.50;5070867;28;20036;-76
2021/12/24 00:46:48;;;;;;;15.50;6.63;;;;;;;-5.23;93.47;98352.81;5038932;28;20072;-76
2021/12/24 00:49:14;;;;;;;15.30;6.47;;;;;;;-5.24;93.25;98351.19;5049069;28;20043;-76
2021/12/24 00:52:20;;;;;;;12.88;6.90;;;;;;;-5.24;93.21;98340.50;5080690;28;20139;-76
2021/12/24 00:57:15;;;;;;;10.82;5.45;;;;;;;-5.27;92.94;98335.63;5053260;28;20072;-76
2021/12/24 00:59:41;;;;;;;13.60;6.35;;;;;;;-5.29;93.55;98334.25;5085301;28;20138;-76
2021/12/24 01:02:07;;;;;;;13.40;6.65;;;;;;;-5.28;92.98;98326.00;5068689;28;20059;-75
2021/12/24 01:04:32;;;;;;;15.85;7.80;;;;;;;-5.30;92.77;98328.09;5061339;28;20028;-76
2021/12/24 01:06:58;;;;;;;16.13;6.88;;;;;;;-5.29;92.92;98336.94;5076033;28;20044;-77
2021/12/24 01:09:24;;;;;;;11.50;6.40;;;;;;;-5.30;93.93;98321.94;5063251;28;20055;-76
2021/12/24 01:11:49;;;;;;;12.60;5.85;;;;;;;-5.30;93.35;98317.41;5078030;28;20457;-77
2021/12/24 01:14:15;;;;;;;14.35;7.63;;;;;;;-5.31;92.96;98318.44;5053746;28;20036;-77
2021/12/24 01:16:49;;;;;;;14.98;6.95;;;;;;;-5.32;93.31;98308.81;5046073;28;20084;-77
2021/12/24 01:19:21;;;;;;;15.48;7.22;;;;;;;-5.31;93.63;98318.44;5048894;28;20048;-77
2021/12/24 01:24:33;;;;;;;16.45;7.90;;;;;;;-5.27;93.48;98308.09;5063250;28;20071;-77
2021/12/24 01:41:06;;;;;;;14.82;7.03;;;;;;;-5.27;93.52;98270.66;5067351;28;20072;-74
2021/12/24 01:42:55;;;;;;;15.55;6.95;;;;;;;-5.28;93.46;98267.19;5060982;28;20040;-76
2021/12/24 01:45:30;;;;;;;14.05;7.45;;;;;;;-5.27;93.58;98254.63;5064723;28;20047;-76
2021/12/24 01:47:58;;;;;;;15.90;6.75;;;;;;;-5.26;94.03;98259.75;5051131;28;20157;-76
2021/12/24 01:50:27;;;;;;;12.57;6.43;;;;;;;-5.24;94.16;98256.81;5044595;28;20106;-76
2021/12/24 01:52:55;;;;;;;12.85;6.03;;;;;;;-5.23;93.81;98245.91;5046593;28;20124;-76
2021/12/24 01:55:22;;;;;;;14.55;6.85;;;;;;;-5.22;94.14;98246.72;5063259;28;20044;-76
2021/12/24 01:57:48;;;;;;;12.35;6.28;;;;;;;-5.25;94.10;98245.31;5039607;28;20506;-77
2021/12/24 02:00:17;;;;;;;13.70;6.05;;;;;;;-5.23;94.04;98231.72;5063740;28;20047;-76
2021/12/24 02:02:44;;;;;;;13.52;6.88;;;;;;;-5.22;94.06;98236.00;5069520;28;20522;-77
2021/12/24 02:05:10;;;;;;;13.50;6.60;;;;;;;-5.23;93.82;98235.19;5069762;28;20083;-76
2021/12/24 02:07:36;;;;;;;12.05;6.75;;;;;;;-5.23;94.00;98232.53;5051438;28;20621;-77
2021/12/24 02:10:05;;;;;;;14.65;7.15;;;;;;;-5.23;93.97;98235.19;5049419;28;20051;-77
2021/12/24 02:12:34;;;;;;;14.07;7.18;;;;;;;-5.21;94.64;98230.47;5035500;28;20067;-76
2021/12/24 02:15:03;;;;;;;;;;;;;;;-5.20;94.47;98213.38;5030849;28;20064;-76
2021/12/24 02:17:56;;;;;;;13.45;6.53;;;;;;;-5.18;94.34;98221.16;5079714;28;20068;-76
2021/12/24 02:28:39;;;;;;;14.70;7.45;;;;;;;-5.13;94.93;98199.03;5097429;28;20039;-77
2021/12/24 02:31:13;;;;;;;12.57;6.53;;;;;;;-5.13;94.19;98202.50;5061959;28;20058;-77
2021/12/24 02:33:40;;;;;;;15.77;7.35;;;;;;;-5.11;94.87;98199.59;5068670;28;20039;-77
2021/12/24 02:36:06;;;;;;;13.30;6.07;;;;;;;-5.11;94.71;98183.56;5038783;28;20036;-76
2021/12/24 02:38:33;;;;;;;13.65;6.63;;;;;;;-5.11;94.53;98194.25;5052333;28;20055;-76
2021/12/24 02:40:59;;;;;;;12.95;6.00;;;;;;;-5.11;95.25;98183.56;5083597;28;20040;-76
2021/12/24 02:43:25;;;;;;;13.85;7.47;;;;;;;-5.10;94.39;98190.53;5042365;28;20452;-76
2021/12/24 02:45:55;;;;;;;16.98;7.80;;;;;;;-5.08;94.77;98185.75;5064465;28;20029;-76
2021/12/24 02:53:57;;;;;;;15.45;7.32;;;;;;;-5.07;95.64;98174.81;5075554;28;20063;-76
2021/12/24 02:56:34;;;;;;;12.55;7.40;;;;;;;-5.05;95.37;98169.22;5077774;28;20036;-76
2021/12/24 02:59:02;;;;;;;15.02;7.32;;;;;;;-5.04;94.72;98165.50;5086911;28;20055;-76
2021/12/24 03:01:33;;;;;;;13.43;6.85;;;;;;;-5.04;95.60;98158.28;5053157;28;20032;-76
2021/12/24 03:04:00;;;;;;;14.25;7.35;;;;;;;-5.02;94.93;98160.75;5054975;28;20037;-76
2021/12/24 03:06:33;;;;;;;11.60;6.55;;;;;;;-5.01;95.71;98165.03;5076323;28;20391;-76
2021/12/24 03:08:58;;;;;;;13.85;6.85;;;;;;;-5.00;95.72;98148.75;5048807;28;20033;-76
2021/12/24 03:11:24;;;;;;;12.88;6.68;;;;;;;-4.98;95.40;98148.50;5081294;28;20060;-76
2021/12/24 03:13:51;;;;;;;12.55;7.03;;;;;;;-4.95;95.63;98145.34;5044672;28;20066;-76
2021/12/24 03:16:18;;;;;;;12.13;6.00;;;;;;;-4.93;95.80;98135.22;5053588;28;20131;-75
2021/12/24 03:18:45;;;;;;;15.07;5.60;;;;;;;-4.92;95.17;98131.47;5087523;28;20047;-75
2021/12/24 03:21:16;;;;;;;15.07;7.53;;;;;;;-4.91;95.52;98141.13;5071611;28;20076;-76
2021/12/24 03:26:26;;;;;;;10.18;5.03;;;;;;;-4.87;96.00;98131.56;5022905;28;20128;-76
2021/12/24 03:28:53;;;;;;;14.20;7.03;;;;;;;-4.87;95.69;98115.50;5067016;28;20036;-75
2021/12/24 03:31:19;;;;;;;13.73;6.90;;;;;;;-4.83;95.24;98115.84;5062295;28;20040;-76
2021/12/24 03:33:44;;;;;;;11.88;6.95;;;;;;;-4.81;96.05;98113.75;5071710;28;20064;-76
2021/12/24 03:36:11;;;;;;;15.00;7.07;;;;;;;-4.80;95.29;98100.13;5056153;28;20041;-76
2021/12/24 03:38:38;;;;;;;12.13;6.68;;;;;;;-4.80;95.51;98110.81;5065566;28;20140;-76
2021/12/24 03:41:05;;;;;;;15.02;7.13;;;;;;;-4.79;95.81;98099.06;5064561;28;20048;-76
2021/12/24 03:43:31;;;;;;;13.70;7.10;;;;;;;-4.76;96.10;98089.72;5071062;28;20033;-75
2021/12/24 03:46:04;;;;;;;14.68;7.63;;;;;;;-4.75;95.15;98099.38;5058892;28;20063;-75
2021/12/24 03:49:09;;;;;;;14.27;7.03;;;;;;;-4.71;95.34;98089.81;5063916;28;20422;-76
2021/12/24 03:51:51;;;;;;;12.68;7.18;;;;;;;-4.71;95.48;98087.94;5062100;28;20587;-76
2021/12/24 03:57:15;;;;;;;15.27;7.13;;;;;;;-4.64;95.08;98085.91;5079866;28;20045;-76
2021/12/24 04:00:12;;;;;;;11.88;6.47;;;;;;;-4.63;95.79;98076.84;4997512;28;20064;-76
2021/12/24 04:02:47;;;;;;;15.02;7.13;;;;;;;-4.61;95.46;98073.91;5051064;28;20040;-76
2021/12/24 04:05:42;;;;;;;15.93;7.57;;;;;;;-4.60;95.93;98072.84;5055763;28;20032;-76
2021/12/24 04:08:34;;;;;;;3.83;2.50;;;;;;;-4.56;95.58;98080.13;5053895;28;20033;-76
2021/12/24 04:11:00;;;;;;;12.23;7.18;;;;;;;-4.53;95.86;98075.34;5071412;28;20047;-76
2021/12/24 04:13:25;;;;;;;13.10;6.88;;;;;;;-4.52;95.67;98068.94;5073746;28;20033;-77
2021/12/24 04:15:51;;;;;;;14.90;7.07;;;;;;;-4.50;95.75;98067.66;5073622;28;20082;-76
2021/12/24 04:18:23;;;;;;;15.60;7.13;;;;;;;-4.47;95.53;98056.44;5053570;28;20044;-75
2021/12/24 04:26:18;;;;;;;12.73;6.38;;;;;;;-4.40;95.76;98043.69;5075743;28;20074;-78
2021/12/24 04:28:44;;;;;;;15.98;6.00;;;;;;;-4.35;95.74;98037.56;5069566;28;20060;-76
2021/12/24 04:31:10;;;;;;;15.38;6.32;;;;;;;-4.34;95.18;98037.34;5053300;28;20090;-76
2021/12/24 04:33:38;;;;;;;13.43;5.30;;;;;;;-4.34;95.30;98026.66;5057556;28;20032;-76
2021/12/24 05:03:10;;;;;;;16.10;7.68;;;;;;;-4.18;95.20;97987.44;5082322;28;20495;-75
2021/12/24 05:05:44;;;;;;;12.65;5.60;;;;;;;-4.16;95.86;97998.75;5086001;28;20181;-75
2021/12/24 05:10:42;;;;;;;5.55;3.15;;;;;;;-4.12;94.80;97977.63;5069291;28;20044;-76
2021/12/24 05:13:13;;;;;;;18.85;8.70;;;;;;;-4.10;94.88;97984.34;5036446;28;20032;-75
2021/12/24 05:16:06;;;;;;;16.85;6.93;;;;;;;-4.08;95.58;97986.75;5056603;28;20135;-75
2021/12/24 05:21:37;;;;;;;10.25;5.25;;;;;;;-4.04;95.33;97963.78;5041552;28;20090;-75
2021/12/24 05:24:06;;;;;;;17.08;7.20;;;;;;;-4.03;95.13;97970.75;5051869;28;20039;-76
2021/12/24 05:26:33;;;;;;;16.85;7.05;;;;;;;-4.02;95.05;97967.81;5052474;28;20549;-76
2021/12/24 05:28:59;;;;;;;19.35;6.78;;;;;;;-4.03;95.75;97966.19;5064333;28;20040;-77
2021/12/24 05:31:26;;;;;;;17.77;7.40;;;;;;;-4.03;95.85;97965.38;5067127;28;20033;-77
2021/12/24 05:33:51;;;;;;;19.98;7.30;;;;;;;-4.00;95.61;97962.19;5035654;28;20177;-77
2021/12/24 05:36:17;;;;;;;15.23;7.43;;;;;;;-3.98;95.27;97963.59;5069663;28;20086;-77
2021/12/24 05:38:43;;;;;;;14.98;7.20;;;;;;;-3.98;95.13;97960.91;5085782;28;20402;-77
2021/12/24 05:41:10;;;;;;;15.48;7.40;;;;;;;-3.96;95.63;97949.94;5049977;28;20040;-77
2021/12/24 05:43:36;;;;;;;17.95;7.68;;;;;;;-3.93;95.41;97953.97;5064271;28;20029;-77
2021/12/24 05:46:02;;;;;;;18.80;8.45;;;;;;;-3.91;96.10;97951.84;5037093;28;20037;-77
2021/12/24 05:48:46;;;;;;;11.65;5.15;;;;;;;-3.88;95.38;97949.47;5048397;28;20040;-77
2021/12/24 05:51:13;;;;;;;17.15;6.53;;;;;;;-3.88;95.95;97954.81;5081730;28;20043;-81
2021/12/24 05:54:00;;;;;;;18.15;7.80;;;;;;;-3.86;95.66;97947.34;5041447;28;20048;-79
2021/12/24 05:56:29;;;;;;;15.60;7.68;;;;;;;-3.84;95.76;97955.13;5024456;28;20040;-77
2021/12/24 05:59:05;;;;;;;19.25;7.22;;;;;;;-3.83;96.01;97952.19;5058537;28;20036;-76
2021/12/24 06:01:31;;;;;;;15.88;7.78;;;;;;;-3.81;96.15;97946.59;5080391;28;20102;-77
2021/12/24 06:03:57;;;;;;;18.52;8.00;;;;;;;-3.79;96.19;97949.81;5054953;28;20090;-79
2021/12/24 06:06:22;;;;;;;16.17;8.13;;;;;;;-3.77;96.05;97956.53;5091927;28;20682;-79
2021/12/24 06:08:48;;;;;;;18.35;7.93;;;;;;;-3.76;95.28;97954.69;5093789;28;20056;-80
2021/12/24 06:11:14;;;;;;;19.45;8.15;;;;;;;-3.74;95.87;97947.19;5065567;28;20040;-79
2021/12/24 06:13:40;;;;;;;13.20;6.32;;;;;;;-3.72;95.33;97951.22;5057587;28;20041;-79
2021/12/24 06:16:07;;;;;;;20.50;8.98;;;;;;;-3.72;95.35;97963.81;5075836;28;20407;-79
2021/12/24 06:18:33;;;;;;;19.10;8.00;;;;;;;-3.71;95.52;97962.75;5056106;28;20489;-78
2021/12/24 06:21:03;;;;;;;20.23;8.48;;;;;;;-3.69;95.79;97949.91;5058285;28;20074;-78
2021/12/24 06:23:30;;;;;;;17.33;8.38;;;;;;;-3.68;95.62;97956.88;5059485;28;20036;-78
2021/12/24 06:25:57;;;;;;;15.32;6.57;;;;;;;-3.66;95.84;97954.75;5075644;28;20558;-78
2021/12/24 06:28:24;;;;;;;17.73;7.80;;;;;;;-3.68;96.12;97952.31;5074071;28;20128;-78
2021/12/24 06:30:50;;;;;;;17.80;7.30;;;;;;;-3.67;96.12;97948.56;5056498;28;20086;-77
2021/12/24 06:33:16;;;;;;;23.08;8.43;;;;;;;-3.67;95.59;97945.09;5076895;28;20040;-79
2021/12/24 06:35:42;;;;;;;19.80;8.43;;;;;;;-3.66;95.58;97950.19;5056212;28;20040;-80
2021/12/24 06:38:07;;;;;;;17.65;7.90;;;;;;;-3.65;95.64;97953.69;5056467;28;20495;-79
2021/12/24 06:40:34;;;;;;;18.13;8.15;;;;;;;-3.66;96.33;97946.69;5056291;28;20044;-78
2021/12/24 06:43:00;;;;;;;18.73;7.95;;;;;;;-3.68;95.64;97952.31;5057384;28;20047;-78
2021/12/24 06:45:26;;;;;;;21.80;8.70;;;;;;;-3.66;96.39;97944.03;5055996;28;20518;-78
2021/12/24 06:47:52;;;;;;;16.67;8.00;;;;;;;-3.65;96.17;97948.31;5084243;28;20093;-78
2021/12/24 06:50:18;;;;;;;18.33;7.43;;;;;;;-3.66;95.99;97950.19;5059412;28;20047;-78
2021/12/24 06:52:44;;;;;;;19.00;8.25;;;;;;;-3.65;96.40;97946.44;5057019;28;20085;-78
2021/12/24 06:55:10;;;;;;;17.90;7.85;;;;;;;-3.63;95.94;97948.09;5054904;28;20041;-78
2021/12/24 06:57:40;;;;;;;17.38;7.35;;;;;;;-3.65;96.40;97961.72;5071718;28;20510;-79
2021/12/24 07:00:08;;;;;;;16.55;7.10;;;;;;;-3.67;96.47;97953.94;5055063;28;20403;-78
2021/12/24 07:02:34;;;;;;;14.00;6.95;;;;;;;-3.71;95.84;97960.88;5088559;28;20036;-78
2021/12/24 07:05:00;;;;;;;13.75;5.30;;;;;;;-3.87;96.75;97967.16;5072838;28;20406;-78
2021/12/24 07:07:25;;;;;;;7.32;3.78;;;;;;;-4.02;96.64;97980.41;5071767;28;20402;-78
2021/12/24 07:09:51;;;;;;;3.30;2.00;;;;;;;-4.39;95.52;97996.31;5054565;28;20043;-78
2021/12/24 07:12:17;;;;;;;1.80;1.60;;;;;;;-4.83;94.51;97996.28;5055162;28;20508;-78
2021/12/24 07:14:43;;;;;;;1.42;1.25;;;;;;;-5.17;93.92;98009.72;5072669;28;20135;-78
2021/12/24 07:17:09;;;;;;;1.83;1.15;;;;;;;-5.43;92.81;98018.38;5072588;28;20053;-78
2021/12/24 07:19:35;;;;;;;1.13;0.85;;;;;;;-5.63;92.34;98020.72;5038218;28;20068;-79
2021/12/24 07:22:02;;;;;;;1.85;0.90;;;;;;;-5.77;92.07;98021.00;5088301;28;20059;-79
2021/12/24 07:24:27;;;;;;;4.93;1.58;;;;;;;-5.97;91.91;98023.34;5054714;28;20044;-78
2021/12/24 07:26:53;;;;;;;0.40;0.40;;;;;;;-6.11;91.37;98016.66;5072254;28;20047;-79
2021/12/24 07:29:19;;;;;;;0.90;0.50;;;;;;;-6.23;90.96;98031.94;5071332;28;20083;-79
2021/12/24 07:31:44;;;;;;;1.27;0.70;;;;;;;-6.33;90.85;98040.53;5054252;28;20036;-79
2021/12/24 07:34:10;;;;;;;2.45;0.80;;;;;;;-6.42;90.24;98029.44;5037790;28;20051;-79
2021/12/24 07:36:36;;;;;;;0.43;0.40;;;;;;;-6.49;90.08;98035.91;5087956;28;20510;-79
2021/12/24 07:39:02;;;;;;;0.60;0.60;;;;;;;-6.48;90.30;98038.34;5072185;28;20039;-79
2021/12/24 07:41:27;;;;;;;0.65;0.60;;;;;;;-6.53;89.92;98056.94;5071229;28;20047;-79
2021/12/24 07:43:53;;;;;;;1.25;0.60;;;;;;;-6.54;90.37;98051.81;5070786;28;20055;-79
2021/12/24 07:46:19;;;;;;;1.45;1.10;;;;;;;-6.53;90.23;98058.78;5072270;28;20083;-79
2021/12/24 07:48:48;;;;;;;1.00;0.68;;;;;;;-6.51;90.65;98056.69;5071224;28;20533;-79
2021/12/24 07:54:01;;;;;;;0.88;0.80;;;;;;;-6.55;90.69;98061.69;5060876;28;20041;-79
2021/12/24 07:56:27;;;;;;;1.98;0.90;;;;;;;-6.57;91.13;98058.44;5043693;28;20455;-79
2021/12/24 07:58:53;;;;;;;0.77;0.68;;;;;;;-6.59;91.11;98062.41;5051944;28;20040;-80
2021/12/24 08:01:22;;;;;;;1.45;0.95;;;;;;;-6.61;90.86;98067.13;5037133;28;20063;-78
2021/12/24 08:03:48;;;;;;;0.70;0.70;;;;;;;-6.62;90.77;98063.66;5053965;28;20131;-78
2021/12/24 08:06:13;;;;;;;1.27;0.63;;;;;;;-6.64;90.67;98060.41;5054045;28;20040;-79
2021/12/24 08:08:39;;;;;;;4.43;1.10;;;;;;;-6.64;90.66;98059.59;5071523;28;20044;-78
2021/12/24 08:11:05;;;;;;;1.27;0.77;;;;;;;-6.66;90.69;98065.16;5071987;28;20406;-78
2021/12/24 08:13:30;;;;;;;1.27;0.80;;;;;;;-6.64;90.42;98062.25;5053693;28;20121;-78
2021/12/24 08:15:56;;;;;;;1.15;0.77;;;;;;;-6.60;90.86;98074.06;5071267;28;20052;-80
2021/12/24 08:18:21;;;;;;;3.63;1.20;;;;;;;-6.54;90.87;98075.84;5053829;28;20494;-77
2021/12/24 08:20:47;;;;;;;2.35;1.27;;;;;;;-6.50;91.37;98080.47;5070519;28;20078;-80
2021/12/24 08:23:13;;;;;;;3.20;1.35;;;;;;;-6.47;90.89;98085.31;5071659;28;20045;-80
2021/12/24 08:25:38;;;;;;;1.90;1.27;;;;;;;-6.45;90.83;98091.22;5053476;28;20055;-80
2021/12/24 08:28:04;;;;;;;3.55;1.48;;;;;;;-6.47;90.96;98106.66;5053485;28;20449;-78
2021/12/24 08:30:30;;;;;;;2.83;1.00;;;;;;;-6.51;91.54;98097.50;5053492;28;20052;-78
2021/12/24 08:32:57;;;;;;;3.13;1.70;;;;;;;-6.52;91.73;98103.88;5053022;28;20047;-78
2021/12/24 08:35:23;;;;;;;1.95;1.10;;;;;;;-6.50;91.72;98095.66;5053364;28;20040;-80
2021/12/24 08:37:49;;;;;;;2.53;1.70;;;;;;;-6.47;91.59;98095.19;5075563;28;20036;-78
2021/12/24 08:40:15;;;;;;;3.03;1.60;;;;;;;-6.48;91.30;98097.03;5070841;28;20044;-77
2021/12/24 08:42:41;;;;;;;3.38;1.92;;;;;;;-6.49;91.04;98098.09;5080527;28;20106;-77
2021/12/24 08:45:08;;;;;;;4.25;1.75;;;;;;;-6.49;91.36;98105.28;5053384;28;20052;-78
2021/12/24 08:47:33;;;;;;;3.70;1.48;;;;;;;-6.49;91.28;98111.41;5052462;28;20125;-77
2021/12/24 08:49:59;;;;;;;3.35;1.80;;;;;;;-6.47;91.41;98106.66;5079561;28;20060;-78
2021/12/24 08:52:24;;;;;;;2.83;1.50;;;;;;;-6.47;91.95;98112.00;5070448;28;20541;-78
2021/12/24 08:54:50;;;;;;;1.52;1.10;;;;;;;-6.51;91.90;98116.19;5069981;28;20048;-77
2021/12/24 08:57:16;;;;;;;1.52;1.10;;;;;;;-6.59;91.53;98116.53;5070287;28;20047;-77
2021/12/24 08:59:41;;;;;;;2.42;1.25;;;;;;;-6.64;91.27;98115.59;5070417;28;20039;-77
2021/12/24 09:02:07;;;;;;;2.40;1.40;;;;;;;-6.75;90.66;98111.91;5069616;28;20387;-77
2021/12/24 09:04:33;;;;;;;1.00;0.60;;;;;;;-6.81;90.35;98131.47;5069696;28;20072;-76
2021/12/24 09:06:59;;;;;;;1.83;0.63;;;;;;;-6.88;90.54;98128.94;5070411;28;20114;-77
2021/12/24 09:09:24;;;;;;;1.08;0.73;;;;;;;-6.92;90.22;98129.63;5052737;28;20116;-77
2021/12/24 09:11:50;;;;;;;1.75;0.68;;;;;;;-6.98;90.28;98131.34;5070732;28;20039;-76
2021/12/24 09:14:18;;;;;;;1.75;0.90;;;;;;;-7.05;90.30;98131.47;5069590;28;20036;-76
2021/12/24 09:16:47;;;;;;;3.78;1.25;;;;;;;-7.09;90.46;98132.16;5085488;28;20087;-76
2021/12/24 09:19:17;;;;;;;1.83;1.08;;;;;;;-7.07;90.61;98136.22;5052609;28;20529;-76
2021/12/24 09:21:42;;;;;;;1.52;1.15;;;;;;;-7.06;90.48;98137.84;5070698;28;20047;-76
2021/12/24 09:24:09;;;;;;;3.00;1.90;;;;;;;-7.09;89.99;98137.50;5070916;28;20040;-76
2021/12/24 09:26:36;;;;;;;2.35;1.55;;;;;;;-7.14;90.56;98132.81;5070915;28;20123;-76
2021/12/24 09:29:05;;;;;;;2.35;1.27;;;;;;;-7.18;90.60;98129.00;5070564;28;20123;-76
2021/12/24 09:31:31;;;;;;;2.40;1.40;;;;;;;-7.22;90.54;98124.38;5070654;28;20051;-76
2021/12/24 09:33:57;;;;;;;4.15;1.70;;;;;;;-7.23;90.03;98117.41;5074084;28;20032;-76
2021/12/24 09:36:25;;;;;;;2.63;1.50;;;;;;;-7.24;90.33;98132.59;5074576;28;20494;-76
2021/12/24 09:38:53;;;;;;;3.83;1.40;;;;;;;-7.27;90.02;98126.91;5074329;28;20087;-77
2021/12/24 09:41:19;;;;;;;3.78;1.98;;;;;;;-7.24;90.84;98126.44;5056670;28;20036;-78
2021/12/24 09:43:45;;;;;;;9.23;3.30;;;;;;;-7.28;90.22;98122.63;5074217;28;20186;-76
2021/12/24 09:46:12;;;;;;;6.22;2.03;;;;;;;-7.32;90.15;98132.91;5073321;28;20044;-77
2021/12/24 09:48:38;;;;;;;6.32;1.90;;;;;;;-7.40;89.85;98133.22;5056201;28;20041;-76
2021/12/24 09:51:04;;;;;;;3.55;1.70;;;;;;;-7.40;90.32;98135.91;5055972;28;20051;-76
2021/12/24 09:53:31;;;;;;;5.68;2.58;;;;;;;-7.38;90.51;98126.63;5039587;28;20399;-77
2021/12/24 09:55:57;;;;;;;4.18;1.85;;;;;;;-7.39;90.42;98127.69;5055440;28;20033;-76
2021/12/24 09:58:23;;;;;;;3.47;1.52;;;;;;;-7.40;90.67;98130.56;5073048;28;20038;-77
2021/12/24 10:00:48;;;;;;;2.80;1.55;;;;;;;-7.45;90.67;98141.91;5073817;28;20047;-77
2021/12/24 10:03:28;;;;;;;4.32;1.65;;;;;;;-7.49;90.40;98137.25;5056586;28;20139;-79
2021/12/24 10:05:54;;;;;;;3.95;1.90;;;;;;;-7.49;90.26;98134.59;5069274;28;20028;-78
2021/12/24 10:08:23;;;;;;;3.10;1.92;;;;;;;-7.47;90.28;98124.50;5055832;28;20051;-79
2021/12/24 10:11:00;;;;;;;3.47;1.73;;;;;;;-7.47;89.81;98135.16;5055773;28;20437;-79
2021/12/24 10:13:43;;;;;;;3.95;1.67;;;;;;;-7.49;90.74;98140.72;5051352;28;20428;-80
2021/12/24 10:16:22;;;;;;;2.88;1.40;;;;;;;-7.51;90.71;98144.66;5064800;28;20474;-79
2021/12/24 10:18:53;;;;;;;2.47;1.13;;;;;;;-7.52;90.62;98151.00;5070417;28;20046;-81
2021/12/24 10:21:24;;;;;;;1.77;1.33;;;;;;;-7.53;90.45;98142.22;5071899;28;20063;-80
2021/12/24 10:24:02;;;;;;;3.50;1.55;;;;;;;-7.55;90.80;98146.16;5055789;28;20107;-80
2021/12/24 10:26:32;;;;;;;2.50;1.38;;;;;;;-7.54;90.44;98137.13;5073853;28;20037;-81
2021/12/24 10:29:04;;;;;;;2.45;1.35;;;;;;;-7.51;91.01;98140.13;5070693;28;20039;-81
2021/12/24 10:31:38;;;;;;;2.88;1.58;;;;;;;-7.46;90.84;98142.13;5049010;28;20553;-82
2021/12/24 10:34:11;;;;;;;2.67;1.63;;;;;;;-7.41;90.27;98136.94;5071642;28;20052;-80
2021/12/24 10:36:59;;;;;;;3.80;1.40;;;;;;;-7.43;90.86;98139.03;5071574;28;20041;-84
2021/12/24 10:39:38;;;;;;;3.30;1.60;;;;;;;-7.44;91.27;98135.53;5073825;28;20258;-83
2021/12/24 10:42:31;;;;;;;3.13;1.85;;;;;;;-7.39;91.45;98137.53;5055816;28;20029;-85
2021/12/24 10:44:59;;;;;;;1.33;1.20;;;;;;;-7.42;91.12;98130.81;5074294;28;20036;-85
2021/12/24 10:47:28;;;;;;;0.70;0.70;;;;;;;-7.44;91.57;98137.41;5073400;28;20557;-84
2021/12/24 10:52:46;;;;;;;1.02;0.98;;;;;;;-7.41;90.75;98134.28;5080554;28;20505;-85
2021/12/24 10:55:15;;;;;;;1.88;1.13;;;;;;;-7.44;91.12;98132.06;5072293;28;20041;-84
2021/12/24 10:57:44;;;;;;;1.40;0.95;;;;;;;-7.42;91.16;98125.47;5054477;28;20711;-81
2021/12/24 11:00:25;;;;;;;1.77;1.00;;;;;;;-7.38;91.15;98133.81;5072729;28;20047;-84
2021/12/24 11:02:58;;;;;;;2.92;0.70;;;;;;;-7.37;91.03;98133.59;5072804;28;20135;-83
2021/12/24 11:05:37;;;;;;;0.63;0.63;;;;;;;-7.37;91.85;98127.44;5054952;28;20429;-83
2021/12/24 11:08:07;;;;;;;0.73;0.50;;;;;;;-7.44;91.65;98124.91;5071418;28;20094;-83
2021/12/24 11:10:34;;;;;;;;;;;;;;;-7.52;91.52;98129.72;5088620;28;20210;-82
2021/12/24 11:13:08;;;;;;;1.25;0.85;;;;;;;-7.55;91.24;98138.97;5088295;28;20348;-82
2021/12/24 11:15:37;;;;;;;0.70;0.60;;;;;;;-7.59;91.47;98132.47;5071826;28;20124;-82
2021/12/24 11:18:17;;;;;;;1.85;0.80;;;;;;;-7.67;90.79;98127.44;5054426;28;20036;-83
2021/12/24 11:20:44;;;;;;;0.85;0.52;;;;;;;-7.74;90.25;98119.56;5066699;28;20090;-83
2021/12/24 11:23:15;;;;;;;0.88;0.63;;;;;;;-7.71;90.93;98129.75;5073230;28;20040;-82
2021/12/24 11:25:47;;;;;;;1.50;0.77;;;;;;;-7.68;91.28;98131.16;5071456;28;20032;-82
2021/12/24 11:28:13;;;;;;;0.82;0.73;;;;;;;-7.72;91.33;98130.81;5068107;28;20566;-84
2021/12/24 11:30:43;;;;;;;0.52;0.52;;;;;;;-7.78;90.53;98131.72;5064442;28;20131;-84
2021/12/24 11:33:16;;;;;;;0.73;0.50;;;;;;;-7.77;91.07;98138.66;5072213;28;20149;-80
2021/12/24 11:35:46;;;;;;;1.25;0.73;;;;;;;-7.76;91.17;98140.28;5071199;28;20040;-78
2021/12/24 11:38:17;;;;;;;1.50;0.70;;;;;;;-7.78;90.24;98139.69;5054078;28;20395;-77
2021/12/24 11:40:45;;;;;;;1.25;0.75;;;;;;;-7.76;90.44;98145.59;5051372;28;20517;-80
2021/12/24 11:43:11;;;;;;;1.90;0.88;;;;;;;-7.73;91.22;98147.81;5067935;28;20055;-79
2021/12/24 11:45:37;;;;;;;1.70;0.80;;;;;;;-7.72;91.01;98152.09;5072709;28;20056;-80
2021/12/24 11:48:03;;;;;;;0.70;0.60;;;;;;;-7.69;90.80;98148.97;5072107;28;20552;-79
2021/12/24 11:50:30;;;;;;;1.23;0.68;;;;;;;-7.65;90.54;98146.66;5072437;28;20134;-79
2021/12/24 11:52:58;;;;;;;0.88;0.88;;;;;;;-7.68;90.92;98147.13;5053865;28;20036;-80
2021/12/24 11:55:25;;;;;;;2.77;1.20;;;;;;;-7.70;90.75;98159.84;5053598;28;20524;-77
2021/12/24 11:58:08;;;;;;;3.15;0.88;;;;;;;-7.68;91.41;98150.59;5068073;28;20062;-78
2021/12/24 12:00:45;;;;;;;2.05;1.00;;;;;;;-7.68;91.90;98163.91;5068038;28;20032;-77
2021/12/24 12:03:28;;;;;;;1.38;1.00;;;;;;;-7.64;91.55;98159.75;5060177;28;20068;-77
2021/12/24 12:05:54;;;;;;;3.13;1.23;;;;;;;-7.65;91.05;98160.81;5057407;28;20052;-78
2021/12/24 12:08:25;;;;;;;2.42;1.30;;;;;;;-7.68;91.57;98157.78;5049126;28;20058;-78
2021/12/24 12:10:59;;;;;;;1.58;1.13;;;;;;;-7.65;92.09;98160.81;5070958;28;20434;-76
2021/12/24 12:13:45;;;;;;;5.30;1.42;;;;;;;-7.65;91.25;98158.13;5071356;28;20043;-81
2021/12/24 12:16:21;;;;;;;3.20;1.85;;;;;;;-7.69;91.74;98151.66;5071230;28;20060;-78
2021/12/24 12:19:01;;;;;;;2.47;1.40;;;;;;;-7.72;91.91;98151.28;5070558;28;20043;-80
2021/12/24 12:21:42;;;;;;;1.92;1.20;;;;;;;-7.79;91.65;98150.56;5037882;28;20134;-79
2021/12/24 12:26:49;;;;;;;1.70;1.23;;;;;;;-7.77;91.53;98153.81;5057742;28;20044;-77
2021/12/24 12:29:42;;;;;;;4.03;1.92;;;;;;;-7.78;92.52;98157.53;5084468;28;20534;-80
2021/12/24 12:32:17;;;;;;;3.38;1.65;;;;;;;-7.81;92.00;98163.25;5069946;28;20474;-83
2021/12/24 12:34:42;;;;;;;2.95;1.27;;;;;;;-7.85;92.43;98160.25;5076499;28;20402;-78
2021/12/24 12:37:51;;;;;;;3.17;1.60;;;;;;;-7.86;91.92;98161.28;5057736;28;20041;-79
2021/12/24 12:40:16;;;;;;;2.08;1.20;;;;;;;-7.91;92.35;98158.47;5044617;28;20041;-78
2021/12/24 12:42:48;;;;;;;3.25;1.17;;;;;;;-7.96;92.03;98169.00;5078716;28;20047;-78
2021/12/24 12:45:14;;;;;;;3.28;1.40;;;;;;;-8.00;92.51;98171.25;5070892;28;20086;-80
2021/12/24 12:47:57;;;;;;;2.42;1.08;;;;;;;-8.07;91.84;98164.41;5050914;28;20067;-85
2021/12/24 12:50:24;;;;;;;2.00;1.35;;;;;;;-8.07;91.62;98175.06;5065683;28;20498;-84
2021/12/24 12:52:52;;;;;;;3.45;0.90;;;;;;;-8.08;92.46;98171.56;5051886;28;20043;-84
2021/12/24 12:55:33;;;;;;;1.52;1.00;;;;;;;-8.09;92.26;98175.28;5056669;28;20126;-82
2021/12/24 12:58:19;;;;;;;2.63;1.05;;;;;;;-8.11;92.55;98168.56;5063529;28;20072;-83
2021/12/24 13:01:12;;;;;;;1.23;1.02;;;;;;;-8.13;92.75;98179.41;5054971;28;20085;-87
2021/12/24 13:03:57;;;;;;;1.52;0.95;;;;;;;-8.09;92.77;98171.81;5070331;28;20086;-84
2021/12/24 13:06:41;;;;;;;2.22;1.42;;;;;;;-7.96;91.81;98161.81;5068083;28;20429;-84
2021/12/24 13:09:09;;;;;;;2.13;1.42;;;;;;;-7.75;92.19;98165.88;5056091;28;20049;-82
2021/12/24 13:11:36;;;;;;;3.40;1.52;;;;;;;-7.62;91.65;98173.69;5069504;28;20128;-83
2021/12/24 13:14:02;;;;;;;1.33;1.20;;;;;;;-7.69;92.39;98170.28;5070472;28;20033;-83
2021/12/24 13:16:49;;;;;;;1.65;1.23;;;;;;;-7.81;92.27;98168.59;5080796;28;20051;-82
2021/12/24 13:24:45;;;;;;;2.97;1.00;;;;;;;-7.82;92.98;98170.44;5066354;28;20125;-86
2021/12/24 13:27:11;;;;;;;1.48;0.90;;;;;;;-7.88;92.42;98168.69;5067352;28;20056;-86
2021/12/24 13:29:37;;;;;;;2.38;0.80;;;;;;;-7.92;92.40;98157.69;5056135;28;20043;-84